createdAt,value
2018-09-29T00:00:08.281Z,20.75
2018-09-29T00:02:34.262Z,20.73
2018-09-29T00:05:00.211Z,20.73
2018-09-29T00:07:26.163Z,20.72
2018-09-29T00:09:52.117Z,20.72
2018-09-29T00:12:18.092Z,20.72
2018-09-29T00:14:44.112Z,20.71
2018-09-29T00:17:10.051Z,20.72
2018-09-29T00:19:36.040Z,20.70
2018-09-29T00:22:02.312Z,20.69
2018-09-29T00:24:28.281Z,20.71
2018-09-29T00:26:54.228Z,20.70
2018-09-29T00:29:20.218Z,20.69
2018-09-29T00:31:46.200Z,20.69
2018-09-29T00:34:12.184Z,20.69
2018-09-29T00:36:38.131Z,20.69
2018-09-29T00:39:04.083Z,20.69
2018-09-29T00:41:30.037Z,20.68
2018-09-29T00:43:56.004Z,20.68
2018-09-29T00:46:22.175Z,20.68
2018-09-29T00:48:48.136Z,20.68
2018-09-29T00:51:14.077Z,20.68
2018-09-29T00:53:40.080Z,20.68
2018-09-29T00:56:06.058Z,20.68
2018-09-29T00:58:32.007Z,20.68
2018-09-29T01:00:58.259Z,20.68
2018-09-29T01:03:24.240Z,20.68
2018-09-29T01:05:50.187Z,20.67
2018-09-29T01:08:16.127Z,20.65
2018-09-29T01:10:42.075Z,20.66
2018-09-29T01:13:08.015Z,20.66
2018-09-29T01:15:33.944Z,20.66
2018-09-29T01:18:00.041Z,20.64
2018-09-29T01:20:26.011Z,20.64
2018-09-29T01:22:51.964Z,20.65
2018-09-29T01:25:17.936Z,20.64
2018-09-29T01:27:43.883Z,20.65
2018-09-29T01:30:09.855Z,20.64
2018-09-29T01:32:35.845Z,20.65
2018-09-29T01:35:01.789Z,20.63
2018-09-29T01:37:27.744Z,20.64
2018-09-29T01:39:53.696Z,20.63
2018-09-29T01:42:19.659Z,20.63
2018-09-29T01:44:45.612Z,20.63
2018-09-29T01:47:11.563Z,20.62
2018-09-29T01:49:37.509Z,20.61
2018-09-29T01:52:03.466Z,20.60
2018-09-29T01:54:29.427Z,20.63
2018-09-29T01:56:55.375Z,20.63
2018-09-29T01:59:21.332Z,20.62
2018-09-29T02:01:47.344Z,20.60
2018-09-29T02:04:13.247Z,20.60
2018-09-29T02:06:39.196Z,20.59
2018-09-29T02:09:05.150Z,20.60
2018-09-29T02:11:31.109Z,20.61
2018-09-29T02:13:57.061Z,20.60
2018-09-29T02:16:23.007Z,20.59
2018-09-29T02:18:48.956Z,20.60
2018-09-29T02:21:14.900Z,20.59
2018-09-29T02:23:40.864Z,20.59
2018-09-29T02:26:06.850Z,20.58
2018-09-29T02:28:32.759Z,20.58
2018-09-29T02:30:58.705Z,20.58
2018-09-29T02:33:25.591Z,20.58
2018-09-29T02:35:51.535Z,20.57
2018-09-29T02:38:17.483Z,20.56
2018-09-29T02:40:43.499Z,20.56
2018-09-29T02:43:09.455Z,20.56
2018-09-29T02:45:35.460Z,20.57
2018-09-29T02:48:01.417Z,20.55
2018-09-29T02:50:27.360Z,20.55
2018-09-29T02:52:53.331Z,20.56
2018-09-29T02:55:19.262Z,20.56
2018-09-29T02:57:45.242Z,20.55
2018-09-29T03:00:11.189Z,20.54
2018-09-29T03:02:37.159Z,20.55
2018-09-29T03:05:03.100Z,20.55
2018-09-29T03:07:29.080Z,20.54
2018-09-29T03:09:55.024Z,20.54
2018-09-29T03:12:20.975Z,20.53
2018-09-29T03:14:46.936Z,20.51
2018-09-29T03:17:12.893Z,20.53
2018-09-29T03:19:38.832Z,20.52
2018-09-29T03:22:04.778Z,20.53
2018-09-29T03:24:30.828Z,20.52
2018-09-29T03:26:56.767Z,20.52
2018-09-29T03:29:22.726Z,20.53
2018-09-29T03:31:48.736Z,20.51
2018-09-29T03:34:14.641Z,20.51
2018-09-29T03:36:40.615Z,20.52
2018-09-29T03:39:06.664Z,20.51
2018-09-29T03:41:32.608Z,20.50
2018-09-29T03:43:58.565Z,20.49
2018-09-29T03:46:24.525Z,20.51
2018-09-29T03:48:50.471Z,20.50
2018-09-29T03:51:16.540Z,20.54
2018-09-29T03:53:42.568Z,20.52
2018-09-29T03:56:08.470Z,20.49
2018-09-29T03:58:34.427Z,20.50
2018-09-29T04:01:00.373Z,20.50
2018-09-29T04:03:26.336Z,20.48
2018-09-29T04:05:52.281Z,20.49
2018-09-29T04:08:18.226Z,20.49
2018-09-29T04:10:44.177Z,20.52
2018-09-29T04:13:10.116Z,20.51
2018-09-29T04:15:36.173Z,20.49
2018-09-29T04:18:02.118Z,20.50
2018-09-29T04:20:28.067Z,20.51
2018-09-29T04:22:54.153Z,20.49
2018-09-29T04:25:20.112Z,20.48
2018-09-29T04:27:46.060Z,20.49
2018-09-29T04:30:12.027Z,20.49
2018-09-29T04:32:37.980Z,20.47
2018-09-29T04:35:03.952Z,20.47
2018-09-29T04:37:30.071Z,20.46
2018-09-29T04:39:56.091Z,20.46
2018-09-29T04:42:22.055Z,20.47
2018-09-29T04:44:48.003Z,20.47
2018-09-29T04:47:13.968Z,20.47
2018-09-29T04:49:39.911Z,20.46
2018-09-29T04:52:05.868Z,20.47
2018-09-29T04:54:31.811Z,20.46
2018-09-29T04:56:57.814Z,20.45
2018-09-29T04:59:23.756Z,20.43
2018-09-29T05:01:49.695Z,20.45
2018-09-29T05:04:15.641Z,20.44
2018-09-29T05:06:41.716Z,20.45
2018-09-29T05:09:07.680Z,20.45
2018-09-29T05:11:33.630Z,20.45
2018-09-29T05:13:59.696Z,20.43
2018-09-29T05:16:25.576Z,20.45
2018-09-29T05:18:51.519Z,20.45
2018-09-29T05:21:17.461Z,20.45
2018-09-29T05:23:43.408Z,20.43
2018-09-29T05:26:09.351Z,20.43
2018-09-29T05:28:35.303Z,20.44
2018-09-29T05:31:01.266Z,20.42
2018-09-29T05:33:27.441Z,20.42
2018-09-29T05:35:53.387Z,20.43
2018-09-29T05:38:19.358Z,20.45
2018-09-29T05:40:45.309Z,20.43
2018-09-29T05:43:11.319Z,20.41
2018-09-29T05:45:37.280Z,20.43
2018-09-29T05:48:03.237Z,20.43
2018-09-29T05:50:29.226Z,20.47
2018-09-29T05:52:55.176Z,20.45
2018-09-29T05:55:21.120Z,20.44
2018-09-29T05:57:47.062Z,20.42
2018-09-29T06:02:45.371Z,20.42
2018-09-29T06:05:11.314Z,20.40
2018-09-29T06:07:37.278Z,20.39
2018-09-29T06:10:03.239Z,20.40
2018-09-29T06:12:29.183Z,20.40
2018-09-29T06:14:55.295Z,20.40
2018-09-29T06:17:21.355Z,20.38
2018-09-29T06:19:47.296Z,20.40
2018-09-29T06:22:13.255Z,20.40
2018-09-29T06:24:39.233Z,20.39
2018-09-29T06:27:05.203Z,20.39
2018-09-29T06:29:31.144Z,20.38
2018-09-29T06:31:57.098Z,20.38
2018-09-29T06:34:23.154Z,20.39
2018-09-29T06:36:49.020Z,20.40
2018-09-29T06:39:15.055Z,20.41
2018-09-29T06:41:41.001Z,20.42
2018-09-29T06:44:06.960Z,20.42
2018-09-29T06:46:32.911Z,20.41
2018-09-29T06:48:58.878Z,20.42
2018-09-29T06:51:24.826Z,20.43
2018-09-29T06:53:50.824Z,20.44
2018-09-29T06:56:16.766Z,20.45
2018-09-29T06:58:42.832Z,20.44
2018-09-29T07:01:08.792Z,20.44
2018-09-29T07:03:34.756Z,20.54
2018-09-29T07:06:00.719Z,20.51
2018-09-29T07:08:26.680Z,20.48
2018-09-29T07:10:52.624Z,20.50
2018-09-29T07:13:18.588Z,20.44
2018-09-29T07:18:16.410Z,20.37
2018-09-29T07:20:42.364Z,20.39
2018-09-29T07:23:08.328Z,20.34
2018-09-29T07:25:34.401Z,20.35
2018-09-29T07:28:00.262Z,20.36
2018-09-29T07:30:26.208Z,20.37
2018-09-29T07:32:52.258Z,20.37
2018-09-29T07:35:18.219Z,20.40
2018-09-29T07:37:44.168Z,20.40
2018-09-29T07:40:10.120Z,20.40
2018-09-29T07:42:36.072Z,20.41
2018-09-29T07:45:02.023Z,20.41
2018-09-29T07:47:27.963Z,20.40
2018-09-29T07:49:53.927Z,20.41
2018-09-29T07:52:19.899Z,20.42
2018-09-29T07:54:45.875Z,20.42
2018-09-29T07:57:11.847Z,20.43
2018-09-29T07:59:37.793Z,20.42
2018-09-29T08:02:03.773Z,20.42
2018-09-29T08:04:29.728Z,20.42
2018-09-29T08:06:55.684Z,20.43
2018-09-29T08:09:21.648Z,20.42
2018-09-29T08:11:47.609Z,20.41
2018-09-29T08:14:13.559Z,20.41
2018-09-29T08:16:39.527Z,20.41
2018-09-29T08:19:05.490Z,20.42
2018-09-29T08:21:31.437Z,20.42
2018-09-29T08:23:57.400Z,20.44
2018-09-29T08:26:23.469Z,20.43
2018-09-29T08:28:49.445Z,20.45
2018-09-29T08:31:15.395Z,20.43
2018-09-29T08:33:41.380Z,20.43
2018-09-29T08:36:07.346Z,20.44
2018-09-29T08:38:33.288Z,20.43
2018-09-29T08:40:59.240Z,20.45
2018-09-29T08:43:25.192Z,20.44
2018-09-29T08:45:51.144Z,20.45
2018-09-29T08:48:17.355Z,20.46
2018-09-29T08:50:43.334Z,20.45
2018-09-29T08:53:09.355Z,20.44
2018-09-29T08:55:35.282Z,20.43
2018-09-29T08:58:01.228Z,20.43
2018-09-29T09:00:27.183Z,20.42
2018-09-29T09:02:53.256Z,20.43
2018-09-29T09:05:19.225Z,20.44
2018-09-29T09:07:45.176Z,20.45
2018-09-29T09:10:11.144Z,20.45
2018-09-29T09:12:37.085Z,20.44
2018-09-29T09:15:03.066Z,20.45
2018-09-29T09:17:29.120Z,20.45
2018-09-29T09:19:55.104Z,20.45
2018-09-29T09:22:21.043Z,20.45
2018-09-29T09:24:47.061Z,20.47
2018-09-29T09:27:13.016Z,20.46
2018-09-29T09:29:38.968Z,20.45
2018-09-29T09:32:04.939Z,20.45
2018-09-29T09:34:30.904Z,20.46
2018-09-29T09:36:56.878Z,20.44
2018-09-29T09:39:22.851Z,20.44
2018-09-29T09:41:48.876Z,20.44
2018-09-29T09:44:14.852Z,20.45
2018-09-29T09:46:40.825Z,20.45
2018-09-29T09:49:07.048Z,20.46
2018-09-29T09:51:33.017Z,20.46
2018-09-29T09:53:58.961Z,20.46
2018-09-29T09:56:24.935Z,20.46
2018-09-29T09:58:50.979Z,20.47
2018-09-29T10:01:16.946Z,20.46
2018-09-29T10:03:42.891Z,20.46
2018-09-29T10:06:08.848Z,20.47
2018-09-29T10:08:34.796Z,20.46
2018-09-29T10:11:00.761Z,20.45
2018-09-29T10:13:26.995Z,20.47
2018-09-29T10:15:53.236Z,20.44
2018-09-29T10:18:19.208Z,20.46
2018-09-29T10:20:45.144Z,20.45
2018-09-29T10:23:11.121Z,20.47
2018-09-29T10:25:37.063Z,20.47
2018-09-29T10:28:03.039Z,20.47
2018-09-29T10:30:29.223Z,20.47
2018-09-29T10:32:55.181Z,20.47
2018-09-29T10:35:21.135Z,20.46
2018-09-29T10:37:47.091Z,20.46
2018-09-29T10:40:13.037Z,20.47
2018-09-29T10:42:38.982Z,20.46
2018-09-29T10:45:05.066Z,20.46
2018-09-29T10:47:31.027Z,20.52
2018-09-29T10:49:56.988Z,20.56
2018-09-29T10:52:22.969Z,20.55
2018-09-29T10:54:48.936Z,20.54
2018-09-29T10:57:14.889Z,20.53
2018-09-29T10:59:40.832Z,20.51
2018-09-29T11:02:06.882Z,20.49
2018-09-29T11:04:32.815Z,20.50
2018-09-29T11:06:58.773Z,20.49
2018-09-29T11:09:25.088Z,20.48
2018-09-29T11:11:51.072Z,20.47
2018-09-29T11:14:17.125Z,20.48
2018-09-29T11:16:43.023Z,20.47
2018-09-29T11:19:09.120Z,20.49
2018-09-29T11:21:35.260Z,20.47
2018-09-29T11:24:01.349Z,20.45
2018-09-29T11:26:27.292Z,20.47
2018-09-29T11:28:53.271Z,20.45
2018-09-29T11:31:19.369Z,20.46
2018-09-29T11:33:45.360Z,20.47
2018-09-29T11:36:11.376Z,20.52
2018-09-29T11:38:37.397Z,20.53
2018-09-29T11:41:03.428Z,20.57
2018-09-29T11:43:29.383Z,20.55
2018-09-29T11:45:55.415Z,20.57
2018-09-29T11:48:21.427Z,20.57
2018-09-29T11:50:47.386Z,20.54
2018-09-29T11:53:13.340Z,20.53
2018-09-29T11:55:39.285Z,20.52
2018-09-29T11:58:05.235Z,20.53
2018-09-29T12:00:31.480Z,20.51
2018-09-29T12:02:57.440Z,20.49
2018-09-29T12:05:23.396Z,20.47
2018-09-29T12:07:49.398Z,20.47
2018-09-29T12:10:15.339Z,20.46
2018-09-29T12:12:41.323Z,20.47
2018-09-29T12:15:07.273Z,20.46
2018-09-29T12:17:33.244Z,20.47
2018-09-29T12:19:59.230Z,20.47
2018-09-29T12:22:25.263Z,20.47
2018-09-29T12:24:51.167Z,20.49
2018-09-29T12:27:17.117Z,20.50
2018-09-29T12:29:43.136Z,20.52
2018-09-29T12:32:09.265Z,20.50
2018-09-29T12:34:35.219Z,20.52
2018-09-29T12:37:01.232Z,20.51
2018-09-29T12:39:27.135Z,20.50
2018-09-29T12:41:53.296Z,20.50
2018-09-29T12:44:19.286Z,20.51
2018-09-29T12:46:45.240Z,20.49
2018-09-29T12:49:11.192Z,20.50
2018-09-29T12:51:37.257Z,20.48
2018-09-29T12:54:03.187Z,20.50
2018-09-29T12:56:29.228Z,20.48
2018-09-29T12:58:55.206Z,20.48
2018-09-29T13:01:21.131Z,20.49
2018-09-29T13:03:47.106Z,20.49
2018-09-29T13:06:13.061Z,20.47
2018-09-29T13:08:39.012Z,20.50
2018-09-29T13:11:05.002Z,20.50
2018-09-29T13:13:30.933Z,20.52
2018-09-29T13:15:56.883Z,20.50
2018-09-29T13:18:22.840Z,20.52
2018-09-29T13:20:48.783Z,20.51
2018-09-29T13:23:14.735Z,20.52
2018-09-29T13:25:40.705Z,20.51
2018-09-29T13:28:06.655Z,20.51
2018-09-29T13:30:32.599Z,20.50
2018-09-29T13:32:58.539Z,20.50
2018-09-29T13:35:24.567Z,20.49
2018-09-29T13:37:50.517Z,20.50
2018-09-29T13:40:16.462Z,20.51
2018-09-29T13:42:42.408Z,20.50
2018-09-29T13:45:08.368Z,20.50
2018-09-29T13:47:34.320Z,20.51
2018-09-29T13:50:00.271Z,20.52
2018-09-29T13:52:26.224Z,20.51
2018-09-29T13:54:52.157Z,20.52
2018-09-29T13:57:18.139Z,20.53
2018-09-29T13:59:44.095Z,20.53
2018-09-29T14:02:10.106Z,20.54
2018-09-29T14:04:36.067Z,20.53
2018-09-29T14:07:02.031Z,20.55
2018-09-29T14:09:28.072Z,20.54
2018-09-29T14:11:54.020Z,20.54
2018-09-29T14:14:19.972Z,20.54
2018-09-29T14:16:48.676Z,20.54
2018-09-29T14:19:14.714Z,20.55
2018-09-29T14:21:40.840Z,20.55
2018-09-29T14:24:06.919Z,20.55
2018-09-29T14:26:32.895Z,20.54
2018-09-29T14:28:58.869Z,20.56
2018-09-29T14:31:24.811Z,20.59
2018-09-29T14:33:50.791Z,20.62
2018-09-29T14:36:16.740Z,20.59
2018-09-29T14:38:42.737Z,20.58
2018-09-29T14:41:08.776Z,20.57
2018-09-29T14:43:34.812Z,20.59
2018-09-29T14:46:00.816Z,20.62
2018-09-29T14:48:26.851Z,20.63
2018-09-29T14:50:52.880Z,20.66
2018-09-29T14:53:18.824Z,20.66
2018-09-29T14:55:44.787Z,20.66
2018-09-29T14:58:10.739Z,20.64
2018-09-29T15:00:36.720Z,20.64
2018-09-29T15:03:02.671Z,20.62
2018-09-29T15:05:28.645Z,20.61
2018-09-29T15:07:54.618Z,20.64
2018-09-29T15:10:20.679Z,20.68
2018-09-29T15:12:46.535Z,20.62
2018-09-29T15:15:12.493Z,20.59
2018-09-29T15:17:38.485Z,20.59
2018-09-29T15:20:04.450Z,20.58
2018-09-29T15:22:30.411Z,20.57
2018-09-29T15:24:56.361Z,20.56
2018-09-29T15:27:22.314Z,20.58
2018-09-29T15:29:48.255Z,20.61
2018-09-29T15:32:14.230Z,20.62
2018-09-29T15:34:40.270Z,20.63
2018-09-29T15:37:06.265Z,20.66
2018-09-29T15:39:32.208Z,20.65
2018-09-29T15:41:58.151Z,20.66
2018-09-29T15:44:24.136Z,20.63
2018-09-29T15:46:50.120Z,20.58
2018-09-29T15:49:16.103Z,20.58
2018-09-29T15:51:42.059Z,20.57
2018-09-29T15:54:08.097Z,20.57
2018-09-29T15:56:34.055Z,20.58
2018-09-29T15:59:00.025Z,20.56
2018-09-29T16:01:26.098Z,20.55
2018-09-29T16:03:52.167Z,20.55
2018-09-29T16:06:18.144Z,20.55
2018-09-29T16:08:44.063Z,20.56
2018-09-29T16:11:10.068Z,20.58
2018-09-29T16:13:36.011Z,20.58
2018-09-29T16:16:01.973Z,20.58
2018-09-29T16:18:27.910Z,20.58
2018-09-29T16:20:53.910Z,20.60
2018-09-29T16:23:20.469Z,20.59
2018-09-29T16:25:46.469Z,20.58
2018-09-29T16:28:12.660Z,20.62
2018-09-29T16:30:38.637Z,20.60
2018-09-29T16:33:04.612Z,20.63
2018-09-29T16:35:30.581Z,20.60
2018-09-29T16:37:56.636Z,20.60
2018-09-29T16:40:22.662Z,20.65
2018-09-29T16:42:48.656Z,20.67
2018-09-29T16:45:14.732Z,20.65
2018-09-29T16:47:40.699Z,20.62
2018-09-29T16:50:06.691Z,20.60
2018-09-29T16:52:32.696Z,20.60
2018-09-29T16:54:58.652Z,20.59
2018-09-29T16:57:24.629Z,20.59
2018-09-29T16:59:50.606Z,20.60
2018-09-29T17:02:16.519Z,20.61
2018-09-29T17:04:42.649Z,20.61
2018-09-29T17:07:08.442Z,20.61
2018-09-29T17:09:34.388Z,20.59
2018-09-29T17:12:00.354Z,20.62
2018-09-29T17:14:26.331Z,20.59
2018-09-29T17:16:52.296Z,20.59
2018-09-29T17:19:18.261Z,20.60
2018-09-29T17:21:44.389Z,20.59
2018-09-29T17:24:10.188Z,20.60
2018-09-29T17:26:36.167Z,20.62
2018-09-29T17:29:02.134Z,20.62
2018-09-29T17:31:28.162Z,20.61
2018-09-29T17:33:54.144Z,20.61
2018-09-29T17:36:20.099Z,20.64
2018-09-29T17:38:46.128Z,20.64
2018-09-29T17:41:12.140Z,20.64
2018-09-29T17:43:38.185Z,20.64
2018-09-29T17:46:04.147Z,20.63
2018-09-29T17:48:30.123Z,20.62
2018-09-29T17:50:56.075Z,20.64
2018-09-29T17:53:22.038Z,20.64
2018-09-29T17:55:47.992Z,20.62
2018-09-29T17:58:13.968Z,20.62
2018-09-29T18:00:39.953Z,20.62
2018-09-29T18:03:05.932Z,20.62
2018-09-29T18:05:31.892Z,20.64
2018-09-29T18:07:57.983Z,20.67
2018-09-29T18:10:23.915Z,20.65
2018-09-29T18:12:49.893Z,20.66
2018-09-29T18:15:16.122Z,20.65
2018-09-29T18:17:42.083Z,20.65
2018-09-29T18:20:08.052Z,20.64
2018-09-29T18:22:34.036Z,20.63
2018-09-29T18:25:00.001Z,20.62
2018-09-29T18:27:25.954Z,20.61
2018-09-29T18:29:51.932Z,20.65
2018-09-29T18:32:17.879Z,20.63
2018-09-29T18:34:43.856Z,20.63
2018-09-29T18:37:09.839Z,20.64
2018-09-29T18:39:35.901Z,20.65
2018-09-29T18:42:01.867Z,20.64
2018-09-29T18:44:27.868Z,20.60
2018-09-29T18:46:54.100Z,20.62
2018-09-29T18:49:20.060Z,20.63
2018-09-29T18:51:46.116Z,20.63
2018-09-29T18:54:12.056Z,20.63
2018-09-29T18:56:38.018Z,20.62
2018-09-29T18:59:04.020Z,20.63
2018-09-29T19:01:29.960Z,20.64
2018-09-29T19:03:55.939Z,20.62
2018-09-29T19:06:21.851Z,20.63
2018-09-29T19:08:47.908Z,20.62
2018-09-29T19:11:13.873Z,20.62
2018-09-29T19:13:39.951Z,20.61
2018-09-29T19:16:05.904Z,20.61
2018-09-29T19:18:31.916Z,20.63
2018-09-29T19:20:57.870Z,20.64
2018-09-29T19:23:23.842Z,20.63
2018-09-29T19:25:49.809Z,20.63
2018-09-29T19:28:15.758Z,20.63
2018-09-29T19:30:41.773Z,20.65
2018-09-29T19:33:07.731Z,20.63
2018-09-29T19:35:33.702Z,20.63
2018-09-29T19:37:59.660Z,20.64
2018-09-29T19:40:25.820Z,20.61
2018-09-29T19:42:51.823Z,20.62
2018-09-29T19:45:17.860Z,20.61
2018-09-29T19:47:43.806Z,20.61
2018-09-29T19:50:09.816Z,20.61
2018-09-29T19:52:35.948Z,20.59
2018-09-29T19:55:01.953Z,20.62
2018-09-29T19:57:27.925Z,20.63
2018-09-29T19:59:53.860Z,20.61
2018-09-29T20:02:19.907Z,20.61
2018-09-29T20:04:45.901Z,20.62
2018-09-29T20:07:11.847Z,20.62
2018-09-29T20:09:37.908Z,20.64
2018-09-29T20:12:03.934Z,20.65
2018-09-29T20:14:30.005Z,20.69
2018-09-29T20:16:56.272Z,20.66
2018-09-29T20:19:22.319Z,20.67
2018-09-29T20:21:48.326Z,20.62
2018-09-29T20:24:14.423Z,20.60
2018-09-29T20:26:40.446Z,20.56
2018-09-29T20:29:06.517Z,20.54
2018-09-29T20:31:32.494Z,20.53
2018-09-29T20:33:58.478Z,20.52
2018-09-29T20:36:24.488Z,20.52
2018-09-29T20:38:50.467Z,20.56
2018-09-29T20:41:16.464Z,20.55
2018-09-29T20:43:42.439Z,20.53
2018-09-29T20:46:08.393Z,20.51
2018-09-29T20:48:34.355Z,20.52
2018-09-29T20:51:00.560Z,20.54
2018-09-29T20:53:26.542Z,20.52
2018-09-29T20:55:52.533Z,20.54
2018-09-29T20:58:18.468Z,20.54
2018-09-29T21:00:44.487Z,20.54
2018-09-29T21:03:10.445Z,20.54
2018-09-29T21:05:36.391Z,20.55
2018-09-29T21:08:02.362Z,20.57
2018-09-29T21:10:28.316Z,20.56
2018-09-29T21:12:54.388Z,20.56
2018-09-29T21:15:20.260Z,20.55
2018-09-29T21:17:46.212Z,20.55
2018-09-29T21:20:12.981Z,20.53
2018-09-29T21:22:38.956Z,20.55
2018-09-29T21:25:04.926Z,20.56
2018-09-29T21:27:30.881Z,20.54
2018-09-29T21:29:56.853Z,20.53
2018-09-29T21:32:22.816Z,20.53
2018-09-29T21:34:48.773Z,20.54
2018-09-29T21:37:14.712Z,20.53
2018-09-29T21:39:40.673Z,20.54
2018-09-29T21:42:06.682Z,20.55
2018-09-29T21:44:32.657Z,20.55
2018-09-29T21:46:58.614Z,20.55
2018-09-29T21:49:24.567Z,20.53
2018-09-29T21:51:50.523Z,20.53
2018-09-29T21:54:16.507Z,20.53
2018-09-29T21:56:42.452Z,20.53
2018-09-29T21:59:08.419Z,20.53
2018-09-29T22:01:34.363Z,20.52
2018-09-29T22:04:00.342Z,20.51
2018-09-29T22:06:26.311Z,20.50
2018-09-29T22:08:52.311Z,20.50
2018-09-29T22:11:18.284Z,20.53
2018-09-29T22:13:44.228Z,20.51
2018-09-29T22:16:10.209Z,20.51
2018-09-29T22:18:36.176Z,20.50
2018-09-29T22:21:02.173Z,20.51
2018-09-29T22:23:28.140Z,20.50
2018-09-29T22:25:54.202Z,20.50
2018-09-29T22:28:20.138Z,20.51
2018-09-29T22:30:46.084Z,20.51
2018-09-29T22:33:12.037Z,20.49
2018-09-29T22:35:38.016Z,20.49
2018-09-29T22:38:03.992Z,20.48
2018-09-29T22:40:30.038Z,20.49
2018-09-29T22:42:56.001Z,20.48
2018-09-29T22:45:22.357Z,20.48
2018-09-29T22:47:48.371Z,20.48
2018-09-29T22:50:14.375Z,20.47
2018-09-29T22:52:40.343Z,20.47
2018-09-29T22:55:06.288Z,20.46
2018-09-29T22:57:32.345Z,20.49
2018-09-29T22:59:58.255Z,20.49
2018-09-29T23:02:24.246Z,20.46
2018-09-29T23:04:50.231Z,20.44
2018-09-29T23:07:16.229Z,20.45
2018-09-29T23:09:42.181Z,20.46
2018-09-29T23:12:08.140Z,20.47
2018-09-29T23:14:34.085Z,20.46
2018-09-29T23:17:00.380Z,20.46
2018-09-29T23:19:26.343Z,20.46
2018-09-29T23:21:52.309Z,20.45
2018-09-29T23:24:18.313Z,20.46
2018-09-29T23:26:44.268Z,20.46
2018-09-29T23:29:10.388Z,20.45
2018-09-29T23:31:36.377Z,20.45
2018-09-29T23:34:02.323Z,20.45
2018-09-29T23:36:28.314Z,20.44
2018-09-29T23:38:54.279Z,20.43
2018-09-29T23:41:20.240Z,20.44
2018-09-29T23:43:46.181Z,20.44
2018-09-29T23:46:12.265Z,20.43
2018-09-29T23:48:38.248Z,20.43
2018-09-29T23:51:04.198Z,20.44
2018-09-29T23:53:30.406Z,20.43
2018-09-29T23:55:56.352Z,20.43
2018-09-29T23:58:22.363Z,20.43
